sensor_id;sensor_type;location;lat;lon;timestamp;P1;durP1;ratioP1;P2;durP2;ratioP2
75810;SDS011;64449;50.016;19.954;2022-12-29T00:02:04;3.00;;;1.30;;
75810;SDS011;64449;50.016;19.954;2022-12-29T00:06:55;4.60;;;1.90;;
75810;SDS011;64449;50.016;19.954;2022-12-29T00:09:21;4.50;;;1.50;;
75810;SDS011;64449;50.016;19.954;2022-12-29T00:11:46;2.80;;;1.30;;
75810;SDS011;64449;50.016;19.954;2022-12-29T00:14:12;4.20;;;1.80;;
75810;SDS011;64449;50.016;19.954;2022-12-29T00:16:57;4.70;;;1.30;;
75810;SDS011;64449;50.016;19.954;2022-12-29T00:19:23;3.40;;;1.60;;
75810;SDS011;64449;50.016;19.954;2022-12-29T00:22:09;4.70;;;1.80;;
75810;SDS011;64449;50.016;19.954;2022-12-29T00:24:53;7.40;;;2.70;;
75810;SDS011;64449;50.016;19.954;2022-12-29T00:27:38;4.10;;;1.60;;
75810;SDS011;64449;50.016;19.954;2022-12-29T00:30:22;5.50;;;2.20;;
75810;SDS011;64449;50.016;19.954;2022-12-29T00:33:13;3.20;;;1.60;;
75810;SDS011;64449;50.016;19.954;2022-12-29T00:36:12;5.80;;;2.40;;
75810;SDS011;64449;50.016;19.954;2022-12-29T00:38:42;4.50;;;2.00;;
75810;SDS011;64449;50.016;19.954;2022-12-29T00:41:30;4.20;;;1.80;;
75810;SDS011;64449;50.016;19.954;2022-12-29T00:46:40;6.20;;;1.80;;
75810;SDS011;64449;50.016;19.954;2022-12-29T00:49:07;5.00;;;1.60;;
75810;SDS011;64449;50.016;19.954;2022-12-29T00:51:55;3.40;;;1.30;;
75810;SDS011;64449;50.016;19.954;2022-12-29T00:54:22;4.30;;;1.90;;
75810;SDS011;64449;50.016;19.954;2022-12-29T00:56:48;4.40;;;2.00;;
75810;SDS011;64449;50.016;19.954;2022-12-29T00:59:15;5.40;;;2.00;;
75810;SDS011;64449;50.016;19.954;2022-12-29T01:01:41;4.70;;;1.70;;
75810;SDS011;64449;50.016;19.954;2022-12-29T01:04:07;6.40;;;2.30;;
75810;SDS011;64449;50.016;19.954;2022-12-29T01:06:34;4.90;;;2.00;;
75810;SDS011;64449;50.016;19.954;2022-12-29T01:09:01;4.70;;;2.10;;
75810;SDS011;64449;50.016;19.954;2022-12-29T01:14:11;3.00;;;1.20;;
75810;SDS011;64449;50.016;19.954;2022-12-29T01:16:36;3.80;;;1.50;;
75810;SDS011;64449;50.016;19.954;2022-12-29T01:21:27;3.20;;;1.10;;
75810;SDS011;64449;50.016;19.954;2022-12-29T01:23:53;2.80;;;1.20;;
75810;SDS011;64449;50.016;19.954;2022-12-29T01:28:44;5.00;;;1.40;;
75810;SDS011;64449;50.016;19.954;2022-12-29T01:31:10;2.50;;;1.40;;
75810;SDS011;64449;50.016;19.954;2022-12-29T01:33:37;3.10;;;1.30;;
75810;SDS011;64449;50.016;19.954;2022-12-29T01:36:03;3.90;;;1.90;;
75810;SDS011;64449;50.016;19.954;2022-12-29T01:38:31;3.00;;;1.20;;
75810;SDS011;64449;50.016;19.954;2022-12-29T01:40:57;3.00;;;1.30;;
75810;SDS011;64449;50.016;19.954;2022-12-29T01:51:29;4.30;;;1.70;;
75810;SDS011;64449;50.016;19.954;2022-12-29T01:53:58;3.10;;;1.20;;
75810;SDS011;64449;50.016;19.954;2022-12-29T01:56:26;1.70;;;0.70;;
75810;SDS011;64449;50.016;19.954;2022-12-29T01:58:54;3.80;;;1.40;;
75810;SDS011;64449;50.016;19.954;2022-12-29T02:01:25;5.20;;;1.60;;
75810;SDS011;64449;50.016;19.954;2022-12-29T02:03:50;3.40;;;1.30;;
75810;SDS011;64449;50.016;19.954;2022-12-29T02:06:23;3.60;;;1.40;;
75810;SDS011;64449;50.016;19.954;2022-12-29T02:08:54;5.10;;;1.70;;
75810;SDS011;64449;50.016;19.954;2022-12-29T02:11:20;4.10;;;1.70;;
75810;SDS011;64449;50.016;19.954;2022-12-29T02:13:48;5.40;;;1.70;;
75810;SDS011;64449;50.016;19.954;2022-12-29T02:18:49;3.20;;;1.20;;
75810;SDS011;64449;50.016;19.954;2022-12-29T02:38:43;3.40;;;1.50;;
75810;SDS011;64449;50.016;19.954;2022-12-29T02:41:03;4.50;;;2.30;;
75810;SDS011;64449;50.016;19.954;2022-12-29T02:43:36;4.30;;;1.60;;
75810;SDS011;64449;50.016;19.954;2022-12-29T02:51:28;2.80;;;1.20;;
75810;SDS011;64449;50.016;19.954;2022-12-29T02:53:57;3.40;;;1.30;;
75810;SDS011;64449;50.016;19.954;2022-12-29T02:59:06;3.40;;;1.30;;
75810;SDS011;64449;50.016;19.954;2022-12-29T03:04:59;3.80;;;1.20;;
75810;SDS011;64449;50.016;19.954;2022-12-29T03:10:20;3.00;;;1.30;;
75810;SDS011;64449;50.016;19.954;2022-12-29T03:13:01;4.00;;;1.40;;
75810;SDS011;64449;50.016;19.954;2022-12-29T03:15:56;3.80;;;1.50;;
75810;SDS011;64449;50.016;19.954;2022-12-29T03:19:06;3.70;;;1.60;;
75810;SDS011;64449;50.016;19.954;2022-12-29T03:24:43;2.80;;;1.10;;
75810;SDS011;64449;50.016;19.954;2022-12-29T03:27:13;2.60;;;1.20;;
75810;SDS011;64449;50.016;19.954;2022-12-29T03:29:47;2.80;;;1.20;;
75810;SDS011;64449;50.016;19.954;2022-12-29T03:32:23;2.70;;;1.20;;
75810;SDS011;64449;50.016;19.954;2022-12-29T03:34:53;3.20;;;1.40;;
75810;SDS011;64449;50.016;19.954;2022-12-29T03:37:23;3.80;;;1.20;;
75810;SDS011;64449;50.016;19.954;2022-12-29T03:39:53;2.70;;;1.30;;
75810;SDS011;64449;50.016;19.954;2022-12-29T03:42:22;3.60;;;1.20;;
75810;SDS011;64449;50.016;19.954;2022-12-29T03:44:53;2.80;;;1.30;;
75810;SDS011;64449;50.016;19.954;2022-12-29T03:47:21;2.50;;;1.10;;
75810;SDS011;64449;50.016;19.954;2022-12-29T03:49:47;2.40;;;1.10;;
75810;SDS011;64449;50.016;19.954;2022-12-29T03:52:14;3.00;;;1.60;;
75810;SDS011;64449;50.016;19.954;2022-12-29T03:54:40;4.50;;;1.70;;
75810;SDS011;64449;50.016;19.954;2022-12-29T03:57:05;4.20;;;1.90;;
75810;SDS011;64449;50.016;19.954;2022-12-29T03:59:31;4.10;;;1.30;;
75810;SDS011;64449;50.016;19.954;2022-12-29T04:01:56;5.00;;;1.50;;
75810;SDS011;64449;50.016;19.954;2022-12-29T04:04:21;2.90;;;1.20;;
75810;SDS011;64449;50.016;19.954;2022-12-29T04:06:47;5.00;;;1.70;;
75810;SDS011;64449;50.016;19.954;2022-12-29T04:09:12;4.10;;;1.50;;
75810;SDS011;64449;50.016;19.954;2022-12-29T04:11:38;3.60;;;1.70;;
75810;SDS011;64449;50.016;19.954;2022-12-29T04:14:03;4.00;;;1.30;;
75810;SDS011;64449;50.016;19.954;2022-12-29T04:16:29;3.20;;;1.60;;
75810;SDS011;64449;50.016;19.954;2022-12-29T04:21:19;3.90;;;1.30;;
75810;SDS011;64449;50.016;19.954;2022-12-29T04:23:45;3.10;;;1.50;;
75810;SDS011;64449;50.016;19.954;2022-12-29T04:26:10;4.00;;;1.50;;
75810;SDS011;64449;50.016;19.954;2022-12-29T04:28:36;3.20;;;1.40;;
75810;SDS011;64449;50.016;19.954;2022-12-29T04:31:03;4.50;;;1.50;;
75810;SDS011;64449;50.016;19.954;2022-12-29T04:33:29;2.90;;;1.30;;
75810;SDS011;64449;50.016;19.954;2022-12-29T04:35:54;2.80;;;1.30;;
75810;SDS011;64449;50.016;19.954;2022-12-29T04:38:20;4.50;;;1.70;;
75810;SDS011;64449;50.016;19.954;2022-12-29T04:40:47;3.00;;;1.30;;
75810;SDS011;64449;50.016;19.954;2022-12-29T04:43:13;4.90;;;1.80;;
75810;SDS011;64449;50.016;19.954;2022-12-29T04:45:43;4.60;;;1.60;;
75810;SDS011;64449;50.016;19.954;2022-12-29T04:48:09;3.00;;;1.50;;
75810;SDS011;64449;50.016;19.954;2022-12-29T04:50:35;6.10;;;1.50;;
75810;SDS011;64449;50.016;19.954;2022-12-29T04:53:00;3.80;;;1.40;;
75810;SDS011;64449;50.016;19.954;2022-12-29T04:55:26;4.60;;;1.90;;
75810;SDS011;64449;50.016;19.954;2022-12-29T04:57:51;3.30;;;1.30;;
75810;SDS011;64449;50.016;19.954;2022-12-29T05:00:17;3.50;;;1.70;;
75810;SDS011;64449;50.016;19.954;2022-12-29T05:02:42;4.10;;;1.80;;
75810;SDS011;64449;50.016;19.954;2022-12-29T05:05:08;5.30;;;2.50;;
75810;SDS011;64449;50.016;19.954;2022-12-29T05:07:34;5.10;;;2.70;;
75810;SDS011;64449;50.016;19.954;2022-12-29T05:09:59;5.30;;;2.30;;
75810;SDS011;64449;50.016;19.954;2022-12-29T05:12:25;5.50;;;2.00;;
75810;SDS011;64449;50.016;19.954;2022-12-29T05:17:15;3.90;;;1.50;;
75810;SDS011;64449;50.016;19.954;2022-12-29T05:19:40;2.90;;;1.60;;
75810;SDS011;64449;50.016;19.954;2022-12-29T05:24:31;4.10;;;1.50;;
75810;SDS011;64449;50.016;19.954;2022-12-29T05:26:57;3.60;;;1.20;;
75810;SDS011;64449;50.016;19.954;2022-12-29T05:29:22;2.90;;;1.30;;
75810;SDS011;64449;50.016;19.954;2022-12-29T05:34:13;2.50;;;1.00;;
75810;SDS011;64449;50.016;19.954;2022-12-29T05:36:39;2.40;;;1.00;;
75810;SDS011;64449;50.016;19.954;2022-12-29T05:39:05;3.30;;;1.60;;
75810;SDS011;64449;50.016;19.954;2022-12-29T05:41:32;2.00;;;0.70;;
75810;SDS011;64449;50.016;19.954;2022-12-29T05:43:58;3.30;;;1.50;;
75810;SDS011;64449;50.016;19.954;2022-12-29T05:46:24;3.30;;;1.40;;
75810;SDS011;64449;50.016;19.954;2022-12-29T05:51:14;2.90;;;0.90;;
75810;SDS011;64449;50.016;19.954;2022-12-29T05:53:40;3.40;;;1.40;;
75810;SDS011;64449;50.016;19.954;2022-12-29T05:58:30;2.70;;;1.20;;
75810;SDS011;64449;50.016;19.954;2022-12-29T06:00:56;4.40;;;1.50;;
75810;SDS011;64449;50.016;19.954;2022-12-29T06:05:47;2.50;;;1.30;;
75810;SDS011;64449;50.016;19.954;2022-12-29T06:08:12;4.20;;;1.70;;
75810;SDS011;64449;50.016;19.954;2022-12-29T06:10:38;2.70;;;1.30;;
75810;SDS011;64449;50.016;19.954;2022-12-29T06:13:03;3.70;;;1.40;;
75810;SDS011;64449;50.016;19.954;2022-12-29T06:15:30;3.80;;;1.50;;
75810;SDS011;64449;50.016;19.954;2022-12-29T06:17:56;4.70;;;2.20;;
75810;SDS011;64449;50.016;19.954;2022-12-29T06:20:22;3.60;;;1.60;;
75810;SDS011;64449;50.016;19.954;2022-12-29T06:22:47;3.90;;;1.80;;
75810;SDS011;64449;50.016;19.954;2022-12-29T06:25:14;3.80;;;1.70;;
75810;SDS011;64449;50.016;19.954;2022-12-29T06:27:40;4.30;;;1.80;;
75810;SDS011;64449;50.016;19.954;2022-12-29T06:30:05;4.40;;;1.70;;
75810;SDS011;64449;50.016;19.954;2022-12-29T06:32:31;3.10;;;1.50;;
75810;SDS011;64449;50.016;19.954;2022-12-29T06:37:22;3.30;;;1.50;;
75810;SDS011;64449;50.016;19.954;2022-12-29T06:42:13;4.70;;;2.10;;
75810;SDS011;64449;50.016;19.954;2022-12-29T06:47:03;3.50;;;1.50;;
75810;SDS011;64449;50.016;19.954;2022-12-29T06:51:54;5.50;;;1.80;;
75810;SDS011;64449;50.016;19.954;2022-12-29T06:56:44;5.20;;;1.90;;
75810;SDS011;64449;50.016;19.954;2022-12-29T06:59:10;3.40;;;1.90;;
75810;SDS011;64449;50.016;19.954;2022-12-29T07:01:35;4.30;;;2.00;;
75810;SDS011;64449;50.016;19.954;2022-12-29T07:04:01;3.90;;;1.80;;
75810;SDS011;64449;50.016;19.954;2022-12-29T07:06:28;4.70;;;2.00;;
75810;SDS011;64449;50.016;19.954;2022-12-29T07:08:53;7.00;;;2.40;;
75810;SDS011;64449;50.016;19.954;2022-12-29T07:11:20;4.20;;;2.10;;
75810;SDS011;64449;50.016;19.954;2022-12-29T07:13:46;3.30;;;1.40;;
75810;SDS011;64449;50.016;19.954;2022-12-29T07:16:11;3.70;;;1.60;;
75810;SDS011;64449;50.016;19.954;2022-12-29T07:18:36;4.00;;;1.70;;
75810;SDS011;64449;50.016;19.954;2022-12-29T07:21:02;5.70;;;2.00;;
75810;SDS011;64449;50.016;19.954;2022-12-29T07:23:28;3.10;;;1.40;;
75810;SDS011;64449;50.016;19.954;2022-12-29T07:26:04;3.30;;;1.70;;
75810;SDS011;64449;50.016;19.954;2022-12-29T07:28:32;3.10;;;1.30;;
75810;SDS011;64449;50.016;19.954;2022-12-29T07:30:57;4.60;;;1.70;;
75810;SDS011;64449;50.016;19.954;2022-12-29T07:33:23;6.00;;;1.80;;
75810;SDS011;64449;50.016;19.954;2022-12-29T07:35:49;5.30;;;2.50;;
75810;SDS011;64449;50.016;19.954;2022-12-29T07:38:14;4.30;;;2.10;;
75810;SDS011;64449;50.016;19.954;2022-12-29T07:40:40;5.10;;;2.20;;
75810;SDS011;64449;50.016;19.954;2022-12-29T07:43:05;4.30;;;2.10;;
75810;SDS011;64449;50.016;19.954;2022-12-29T07:45:30;4.20;;;2.20;;
75810;SDS011;64449;50.016;19.954;2022-12-29T07:47:56;3.80;;;1.90;;
75810;SDS011;64449;50.016;19.954;2022-12-29T07:50:21;5.50;;;2.10;;
75810;SDS011;64449;50.016;19.954;2022-12-29T07:52:47;4.20;;;2.30;;
75810;SDS011;64449;50.016;19.954;2022-12-29T07:55:13;4.00;;;2.00;;
75810;SDS011;64449;50.016;19.954;2022-12-29T07:57:39;4.20;;;2.10;;
75810;SDS011;64449;50.016;19.954;2022-12-29T08:00:04;5.20;;;2.20;;
75810;SDS011;64449;50.016;19.954;2022-12-29T08:02:31;4.90;;;2.20;;
75810;SDS011;64449;50.016;19.954;2022-12-29T08:04:56;4.20;;;2.50;;
75810;SDS011;64449;50.016;19.954;2022-12-29T08:07:21;5.20;;;2.10;;
75810;SDS011;64449;50.016;19.954;2022-12-29T08:09:47;4.20;;;1.90;;
75810;SDS011;64449;50.016;19.954;2022-12-29T08:12:12;4.40;;;1.90;;
75810;SDS011;64449;50.016;19.954;2022-12-29T08:14:38;4.10;;;2.10;;
75810;SDS011;64449;50.016;19.954;2022-12-29T08:17:03;4.90;;;2.10;;
75810;SDS011;64449;50.016;19.954;2022-12-29T08:19:28;3.10;;;1.60;;
75810;SDS011;64449;50.016;19.954;2022-12-29T08:21:54;4.40;;;2.10;;
75810;SDS011;64449;50.016;19.954;2022-12-29T08:24:19;4.80;;;2.10;;
75810;SDS011;64449;50.016;19.954;2022-12-29T08:26:45;4.50;;;2.40;;
75810;SDS011;64449;50.016;19.954;2022-12-29T08:29:10;4.40;;;1.60;;
75810;SDS011;64449;50.016;19.954;2022-12-29T08:31:35;6.20;;;2.30;;
75810;SDS011;64449;50.016;19.954;2022-12-29T08:34:01;3.80;;;1.90;;
75810;SDS011;64449;50.016;19.954;2022-12-29T08:36:28;5.70;;;1.80;;
75810;SDS011;64449;50.016;19.954;2022-12-29T08:38:54;6.70;;;2.60;;
75810;SDS011;64449;50.016;19.954;2022-12-29T08:41:20;6.20;;;3.40;;
75810;SDS011;64449;50.016;19.954;2022-12-29T08:43:46;4.50;;;2.40;;
75810;SDS011;64449;50.016;19.954;2022-12-29T08:46:12;5.60;;;2.40;;
75810;SDS011;64449;50.016;19.954;2022-12-29T08:48:37;6.20;;;2.70;;
75810;SDS011;64449;50.016;19.954;2022-12-29T08:51:03;6.10;;;2.50;;
75810;SDS011;64449;50.016;19.954;2022-12-29T08:53:28;4.80;;;2.00;;
75810;SDS011;64449;50.016;19.954;2022-12-29T08:55:55;5.60;;;2.50;;
75810;SDS011;64449;50.016;19.954;2022-12-29T08:58:23;4.70;;;2.40;;
75810;SDS011;64449;50.016;19.954;2022-12-29T09:00:48;5.00;;;3.00;;
75810;SDS011;64449;50.016;19.954;2022-12-29T09:03:13;9.90;;;4.50;;
75810;SDS011;64449;50.016;19.954;2022-12-29T09:05:40;4.60;;;2.60;;
75810;SDS011;64449;50.016;19.954;2022-12-29T09:08:05;4.30;;;2.30;;
75810;SDS011;64449;50.016;19.954;2022-12-29T09:10:31;6.80;;;3.00;;
75810;SDS011;64449;50.016;19.954;2022-12-29T09:12:56;5.60;;;2.20;;
75810;SDS011;64449;50.016;19.954;2022-12-29T09:15:22;6.10;;;2.50;;
75810;SDS011;64449;50.016;19.954;2022-12-29T09:17:47;4.80;;;2.40;;
75810;SDS011;64449;50.016;19.954;2022-12-29T09:20:13;6.50;;;2.60;;
75810;SDS011;64449;50.016;19.954;2022-12-29T09:22:40;4.30;;;2.10;;
75810;SDS011;64449;50.016;19.954;2022-12-29T09:25:06;4.90;;;2.20;;
75810;SDS011;64449;50.016;19.954;2022-12-29T09:27:33;5.80;;;2.40;;
75810;SDS011;64449;50.016;19.954;2022-12-29T09:29:58;4.80;;;2.20;;
75810;SDS011;64449;50.016;19.954;2022-12-29T09:32:24;6.00;;;1.90;;
75810;SDS011;64449;50.016;19.954;2022-12-29T09:34:49;5.90;;;2.60;;
75810;SDS011;64449;50.016;19.954;2022-12-29T09:37:14;3.90;;;1.90;;
75810;SDS011;64449;50.016;19.954;2022-12-29T09:39:40;5.00;;;2.60;;
75810;SDS011;64449;50.016;19.954;2022-12-29T09:50:10;5.60;;;2.70;;
75810;SDS011;64449;50.016;19.954;2022-12-29T09:52:43;3.50;;;2.00;;
75810;SDS011;64449;50.016;19.954;2022-12-29T09:55:15;5.30;;;2.40;;
75810;SDS011;64449;50.016;19.954;2022-12-29T10:03:05;5.50;;;2.70;;
75810;SDS011;64449;50.016;19.954;2022-12-29T10:06:05;5.10;;;2.90;;
75810;SDS011;64449;50.016;19.954;2022-12-29T10:11:42;5.30;;;2.90;;
75810;SDS011;64449;50.016;19.954;2022-12-29T10:17:17;4.60;;;2.40;;
75810;SDS011;64449;50.016;19.954;2022-12-29T10:25:02;6.00;;;2.90;;
75810;SDS011;64449;50.016;19.954;2022-12-29T10:27:35;5.40;;;2.30;;
75810;SDS011;64449;50.016;19.954;2022-12-29T10:30:01;6.30;;;2.70;;
75810;SDS011;64449;50.016;19.954;2022-12-29T10:32:38;5.60;;;2.70;;
75810;SDS011;64449;50.016;19.954;2022-12-29T10:35:10;7.40;;;3.00;;
75810;SDS011;64449;50.016;19.954;2022-12-29T10:40:31;6.80;;;3.00;;
75810;SDS011;64449;50.016;19.954;2022-12-29T10:43:05;6.10;;;2.90;;
75810;SDS011;64449;50.016;19.954;2022-12-29T10:45:42;7.40;;;3.00;;
75810;SDS011;64449;50.016;19.954;2022-12-29T10:48:13;4.60;;;2.80;;
75810;SDS011;64449;50.016;19.954;2022-12-29T10:50:47;6.00;;;3.00;;
75810;SDS011;64449;50.016;19.954;2022-12-29T10:53:21;6.40;;;3.00;;
75810;SDS011;64449;50.016;19.954;2022-12-29T10:55:50;6.40;;;3.00;;
75810;SDS011;64449;50.016;19.954;2022-12-29T10:58:16;7.70;;;3.10;;
75810;SDS011;64449;50.016;19.954;2022-12-29T11:00:42;3.80;;;2.30;;
75810;SDS011;64449;50.016;19.954;2022-12-29T11:06:15;5.10;;;3.00;;
75810;SDS011;64449;50.016;19.954;2022-12-29T11:08:53;5.40;;;2.10;;
75810;SDS011;64449;50.016;19.954;2022-12-29T11:11:25;6.00;;;2.50;;
75810;SDS011;64449;50.016;19.954;2022-12-29T11:14:35;6.00;;;3.20;;
75810;SDS011;64449;50.016;19.954;2022-12-29T11:16:56;6.70;;;3.20;;
75810;SDS011;64449;50.016;19.954;2022-12-29T11:19:27;6.70;;;2.90;;
75810;SDS011;64449;50.016;19.954;2022-12-29T11:21:56;5.90;;;2.90;;
75810;SDS011;64449;50.016;19.954;2022-12-29T11:24:47;5.30;;;2.60;;
75810;SDS011;64449;50.016;19.954;2022-12-29T11:27:21;6.90;;;3.30;;
75810;SDS011;64449;50.016;19.954;2022-12-29T11:29:48;6.30;;;2.90;;
75810;SDS011;64449;50.016;19.954;2022-12-29T11:34:48;5.40;;;2.30;;
75810;SDS011;64449;50.016;19.954;2022-12-29T11:37:15;6.20;;;3.00;;
75810;SDS011;64449;50.016;19.954;2022-12-29T11:42:33;4.80;;;2.20;;
75810;SDS011;64449;50.016;19.954;2022-12-29T11:45:04;3.70;;;2.10;;
75810;SDS011;64449;50.016;19.954;2022-12-29T11:47:31;3.20;;;1.70;;
75810;SDS011;64449;50.016;19.954;2022-12-29T11:49:58;4.90;;;2.20;;
75810;SDS011;64449;50.016;19.954;2022-12-29T11:52:28;4.60;;;2.10;;
75810;SDS011;64449;50.016;19.954;2022-12-29T11:54:58;3.50;;;1.90;;
75810;SDS011;64449;50.016;19.954;2022-12-29T11:57:25;3.90;;;2.60;;
75810;SDS011;64449;50.016;19.954;2022-12-29T11:59:52;4.50;;;2.20;;
75810;SDS011;64449;50.016;19.954;2022-12-29T12:02:31;3.50;;;1.60;;
75810;SDS011;64449;50.016;19.954;2022-12-29T12:07:57;3.90;;;1.70;;
75810;SDS011;64449;50.016;19.954;2022-12-29T12:10:33;3.40;;;1.60;;
75810;SDS011;64449;50.016;19.954;2022-12-29T12:15:42;4.50;;;1.90;;
75810;SDS011;64449;50.016;19.954;2022-12-29T12:18:16;3.60;;;1.70;;
75810;SDS011;64449;50.016;19.954;2022-12-29T12:20:56;5.10;;;1.50;;
75810;SDS011;64449;50.016;19.954;2022-12-29T12:23:36;4.10;;;1.90;;
75810;SDS011;64449;50.016;19.954;2022-12-29T12:34:20;3.80;;;1.20;;
75810;SDS011;64449;50.016;19.954;2022-12-29T12:42:29;3.80;;;1.70;;
75810;SDS011;64449;50.016;19.954;2022-12-29T12:51:00;5.00;;;1.90;;
75810;SDS011;64449;50.016;19.954;2022-12-29T12:56:37;3.60;;;1.70;;
75810;SDS011;64449;50.016;19.954;2022-12-29T12:59:25;3.90;;;1.80;;
75810;SDS011;64449;50.016;19.954;2022-12-29T13:12:57;4.90;;;1.90;;
75810;SDS011;64449;50.016;19.954;2022-12-29T13:15:47;3.90;;;1.90;;
75810;SDS011;64449;50.016;19.954;2022-12-29T13:20:59;4.90;;;2.10;;
75810;SDS011;64449;50.016;19.954;2022-12-29T13:23:43;4.50;;;2.30;;
75810;SDS011;64449;50.016;19.954;2022-12-29T13:26:19;5.90;;;2.10;;
75810;SDS011;64449;50.016;19.954;2022-12-29T13:31:50;7.20;;;2.20;;
75810;SDS011;64449;50.016;19.954;2022-12-29T13:37:26;5.80;;;1.90;;
75810;SDS011;64449;50.016;19.954;2022-12-29T13:39:57;4.80;;;1.60;;
75810;SDS011;64449;50.016;19.954;2022-12-29T13:42:28;4.40;;;1.90;;
75810;SDS011;64449;50.016;19.954;2022-12-29T13:44:59;2.40;;;1.40;;
75810;SDS011;64449;50.016;19.954;2022-12-29T13:47:33;3.80;;;1.70;;
75810;SDS011;64449;50.016;19.954;2022-12-29T13:50:03;4.30;;;2.10;;
75810;SDS011;64449;50.016;19.954;2022-12-29T13:52:38;4.90;;;1.80;;
75810;SDS011;64449;50.016;19.954;2022-12-29T14:00:31;3.90;;;1.90;;
75810;SDS011;64449;50.016;19.954;2022-12-29T14:08:40;5.40;;;1.80;;
75810;SDS011;64449;50.016;19.954;2022-12-29T14:11:09;6.50;;;2.10;;
75810;SDS011;64449;50.016;19.954;2022-12-29T14:13:39;4.40;;;1.90;;
75810;SDS011;64449;50.016;19.954;2022-12-29T14:16:08;4.40;;;2.00;;
75810;SDS011;64449;50.016;19.954;2022-12-29T14:18:49;4.30;;;2.10;;
75810;SDS011;64449;50.016;19.954;2022-12-29T14:23:42;4.70;;;2.00;;
75810;SDS011;64449;50.016;19.954;2022-12-29T14:26:11;4.30;;;2.20;;
75810;SDS011;64449;50.016;19.954;2022-12-29T14:28:47;3.60;;;1.60;;
75810;SDS011;64449;50.016;19.954;2022-12-29T14:33:41;4.60;;;2.10;;
75810;SDS011;64449;50.016;19.954;2022-12-29T14:36:51;5.80;;;2.10;;
75810;SDS011;64449;50.016;19.954;2022-12-29T14:42:06;6.20;;;2.40;;
75810;SDS011;64449;50.016;19.954;2022-12-29T14:47:20;4.70;;;2.60;;
75810;SDS011;64449;50.016;19.954;2022-12-29T14:49:52;5.90;;;2.10;;
75810;SDS011;64449;50.016;19.954;2022-12-29T14:52:25;3.50;;;1.70;;
75810;SDS011;64449;50.016;19.954;2022-12-29T14:54:54;5.40;;;2.50;;
75810;SDS011;64449;50.016;19.954;2022-12-29T14:57:27;4.30;;;1.90;;
75810;SDS011;64449;50.016;19.954;2022-12-29T15:00:22;3.70;;;1.40;;
75810;SDS011;64449;50.016;19.954;2022-12-29T15:02:54;5.20;;;2.00;;
75810;SDS011;64449;50.016;19.954;2022-12-29T15:05:37;4.30;;;1.90;;
75810;SDS011;64449;50.016;19.954;2022-12-29T15:08:08;4.90;;;2.20;;
75810;SDS011;64449;50.016;19.954;2022-12-29T15:10:57;3.50;;;1.90;;
75810;SDS011;64449;50.016;19.954;2022-12-29T15:13:31;6.30;;;2.20;;
75810;SDS011;64449;50.016;19.954;2022-12-29T15:15:59;4.60;;;2.50;;
75810;SDS011;64449;50.016;19.954;2022-12-29T15:18:33;5.00;;;2.20;;
75810;SDS011;64449;50.016;19.954;2022-12-29T15:21:03;5.30;;;2.80;;
75810;SDS011;64449;50.016;19.954;2022-12-29T15:23:30;5.40;;;2.30;;
75810;SDS011;64449;50.016;19.954;2022-12-29T15:25:59;6.30;;;3.00;;
75810;SDS011;64449;50.016;19.954;2022-12-29T15:28:43;5.10;;;1.90;;
75810;SDS011;64449;50.016;19.954;2022-12-29T15:31:11;5.00;;;2.40;;
75810;SDS011;64449;50.016;19.954;2022-12-29T15:33:42;8.00;;;3.90;;
75810;SDS011;64449;50.016;19.954;2022-12-29T15:36:13;8.80;;;3.60;;
75810;SDS011;64449;50.016;19.954;2022-12-29T15:38:50;8.30;;;4.10;;
75810;SDS011;64449;50.016;19.954;2022-12-29T15:43:53;9.00;;;3.90;;
75810;SDS011;64449;50.016;19.954;2022-12-29T15:46:29;14.40;;;3.80;;
75810;SDS011;64449;50.016;19.954;2022-12-29T15:48:55;8.40;;;4.10;;
75810;SDS011;64449;50.016;19.954;2022-12-29T15:51:27;8.50;;;3.50;;
75810;SDS011;64449;50.016;19.954;2022-12-29T15:53:55;6.40;;;3.10;;
75810;SDS011;64449;50.016;19.954;2022-12-29T15:56:22;8.40;;;4.00;;
75810;SDS011;64449;50.016;19.954;2022-12-29T15:58:49;11.00;;;4.50;;
75810;SDS011;64449;50.016;19.954;2022-12-29T16:01:17;8.70;;;4.00;;
75810;SDS011;64449;50.016;19.954;2022-12-29T16:03:52;8.90;;;4.10;;
75810;SDS011;64449;50.016;19.954;2022-12-29T16:06:34;11.30;;;4.90;;
75810;SDS011;64449;50.016;19.954;2022-12-29T16:09:02;7.80;;;4.20;;
75810;SDS011;64449;50.016;19.954;2022-12-29T16:11:33;11.40;;;4.40;;
75810;SDS011;64449;50.016;19.954;2022-12-29T16:14:07;9.50;;;4.90;;
75810;SDS011;64449;50.016;19.954;2022-12-29T16:16:39;8.60;;;4.20;;
75810;SDS011;64449;50.016;19.954;2022-12-29T16:19:18;7.90;;;4.40;;
75810;SDS011;64449;50.016;19.954;2022-12-29T16:21:49;8.40;;;4.60;;
75810;SDS011;64449;50.016;19.954;2022-12-29T16:24:16;10.90;;;4.70;;
75810;SDS011;64449;50.016;19.954;2022-12-29T16:29:21;10.20;;;5.40;;
75810;SDS011;64449;50.016;19.954;2022-12-29T16:31:57;9.40;;;5.40;;
75810;SDS011;64449;50.016;19.954;2022-12-29T16:41:58;10.90;;;5.50;;
75810;SDS011;64449;50.016;19.954;2022-12-29T16:46:58;7.20;;;4.30;;
75810;SDS011;64449;50.016;19.954;2022-12-29T16:49:27;11.40;;;5.60;;
75810;SDS011;64449;50.016;19.954;2022-12-29T16:51:54;8.40;;;4.40;;
75810;SDS011;64449;50.016;19.954;2022-12-29T16:54:32;14.30;;;5.10;;
75810;SDS011;64449;50.016;19.954;2022-12-29T16:57:00;11.20;;;4.70;;
75810;SDS011;64449;50.016;19.954;2022-12-29T16:59:33;8.50;;;4.30;;
75810;SDS011;64449;50.016;19.954;2022-12-29T17:02:12;10.10;;;5.00;;
75810;SDS011;64449;50.016;19.954;2022-12-29T17:04:40;8.50;;;5.30;;
75810;SDS011;64449;50.016;19.954;2022-12-29T17:07:15;9.00;;;4.90;;
75810;SDS011;64449;50.016;19.954;2022-12-29T17:09:42;10.30;;;5.10;;
75810;SDS011;64449;50.016;19.954;2022-12-29T17:12:08;9.80;;;5.00;;
75810;SDS011;64449;50.016;19.954;2022-12-29T17:14:42;10.40;;;5.10;;
75810;SDS011;64449;50.016;19.954;2022-12-29T17:22:27;8.60;;;4.00;;
75810;SDS011;64449;50.016;19.954;2022-12-29T17:24:53;8.60;;;4.50;;
75810;SDS011;64449;50.016;19.954;2022-12-29T17:27:28;8.00;;;4.20;;
75810;SDS011;64449;50.016;19.954;2022-12-29T17:30:20;10.50;;;5.40;;
75810;SDS011;64449;50.016;19.954;2022-12-29T17:32:51;11.10;;;5.40;;
75810;SDS011;64449;50.016;19.954;2022-12-29T17:35:18;8.10;;;4.30;;
75810;SDS011;64449;50.016;19.954;2022-12-29T17:37:46;11.20;;;5.40;;
75810;SDS011;64449;50.016;19.954;2022-12-29T17:40:13;10.90;;;5.80;;
75810;SDS011;64449;50.016;19.954;2022-12-29T17:42:51;13.30;;;5.70;;
75810;SDS011;64449;50.016;19.954;2022-12-29T17:45:19;11.90;;;5.50;;
75810;SDS011;64449;50.016;19.954;2022-12-29T17:47:49;9.00;;;4.40;;
75810;SDS011;64449;50.016;19.954;2022-12-29T17:50:16;10.50;;;4.80;;
75810;SDS011;64449;50.016;19.954;2022-12-29T17:52:51;9.90;;;5.00;;
75810;SDS011;64449;50.016;19.954;2022-12-29T17:55:20;10.90;;;5.30;;
75810;SDS011;64449;50.016;19.954;2022-12-29T17:57:47;8.60;;;4.40;;
75810;SDS011;64449;50.016;19.954;2022-12-29T18:00:13;9.80;;;4.30;;
75810;SDS011;64449;50.016;19.954;2022-12-29T18:02:52;13.10;;;6.30;;
75810;SDS011;64449;50.016;19.954;2022-12-29T18:07:52;12.20;;;5.40;;
75810;SDS011;64449;50.016;19.954;2022-12-29T18:10:19;9.30;;;4.90;;
75810;SDS011;64449;50.016;19.954;2022-12-29T18:12:47;10.90;;;5.70;;
75810;SDS011;64449;50.016;19.954;2022-12-29T18:15:24;8.50;;;4.50;;
75810;SDS011;64449;50.016;19.954;2022-12-29T18:18:13;9.90;;;5.10;;
75810;SDS011;64449;50.016;19.954;2022-12-29T18:20:38;8.70;;;4.40;;
75810;SDS011;64449;50.016;19.954;2022-12-29T18:23:05;9.50;;;4.50;;
75810;SDS011;64449;50.016;19.954;2022-12-29T18:25:45;11.40;;;5.60;;